Terminal Aerodrome Forecast
Issued by NWS

Home | Current Version | Previous Version | Text Only | Print | Product List | Glossary On
Versions: 1 2 3 4 5 6 7 8 9 10 11 12 13 14 15 16
376
FTUS46 KMFR 260535
TAFLMT
TAF
KLMT 260535Z 2606/2706 VRB03KT P6SM SKC
     FM260900 16003KT 3SM BR FEW002 SCT200
     FM261500 20005KT 2SM BR BCFG SCT002 BKN008
     FM261800 20010G17KT P6SM SCT020 BKN070 BKN090
     FM262100 23014G23KT 3SM -SN BR SCT007 BKN010 OVC020
     FM270300 25006KT 4SM -SHSN SCT020 BKN030 OVC040=

USA.gov is the U.S. government's official web portal to all federal, state and local government web resources and services.